sensor_id;sensor_type;location;lat;lon;timestamp;temperature;humidity
65074;DHT22;52218;51.224;-2.328;2023-02-13T00:02:23;8.20;99.90
65074;DHT22;52218;51.224;-2.328;2023-02-13T00:06:06;8.30;99.90
65074;DHT22;52218;51.224;-2.328;2023-02-13T00:09:48;8.30;99.90
65074;DHT22;52218;51.224;-2.328;2023-02-13T00:13:30;8.30;99.90
65074;DHT22;52218;51.224;-2.328;2023-02-13T00:17:11;8.30;99.90
65074;DHT22;52218;51.224;-2.328;2023-02-13T00:21:07;8.20;99.90
65074;DHT22;52218;51.224;-2.328;2023-02-13T00:24:49;8.30;99.90
65074;DHT22;52218;51.224;-2.328;2023-02-13T00:28:31;8.20;99.90
65074;DHT22;52218;51.224;-2.328;2023-02-13T00:32:13;8.20;99.90
65074;DHT22;52218;51.224;-2.328;2023-02-13T00:39:44;8.20;99.90
65074;DHT22;52218;51.224;-2.328;2023-02-13T00:43:27;8.20;99.90
65074;DHT22;52218;51.224;-2.328;2023-02-13T00:47:09;8.20;99.90
65074;DHT22;52218;51.224;-2.328;2023-02-13T00:50:51;8.20;99.90
65074;DHT22;52218;51.224;-2.328;2023-02-13T00:54:33;8.20;99.90
65074;DHT22;52218;51.224;-2.328;2023-02-13T00:58:16;8.20;99.90
65074;DHT22;52218;51.224;-2.328;2023-02-13T01:01:58;8.20;99.90
65074;DHT22;52218;51.224;-2.328;2023-02-13T01:05:41;8.20;99.90
65074;DHT22;52218;51.224;-2.328;2023-02-13T01:09:23;8.20;99.90
65074;DHT22;52218;51.224;-2.328;2023-02-13T01:13:06;8.20;99.90
65074;DHT22;52218;51.224;-2.328;2023-02-13T01:16:49;8.10;99.90
65074;DHT22;52218;51.224;-2.328;2023-02-13T01:20:31;8.10;99.90
65074;DHT22;52218;51.224;-2.328;2023-02-13T01:24:13;8.10;99.90
65074;DHT22;52218;51.224;-2.328;2023-02-13T01:27:55;8.10;99.90
65074;DHT22;52218;51.224;-2.328;2023-02-13T01:31:37;8.10;99.90
65074;DHT22;52218;51.224;-2.328;2023-02-13T01:35:19;8.10;99.90
65074;DHT22;52218;51.224;-2.328;2023-02-13T01:39:01;8.10;99.90
65074;DHT22;52218;51.224;-2.328;2023-02-13T01:42:43;8.10;99.90
65074;DHT22;52218;51.224;-2.328;2023-02-13T01:50:18;8.10;99.90
65074;DHT22;52218;51.224;-2.328;2023-02-13T01:54:06;8.10;99.90
65074;DHT22;52218;51.224;-2.328;2023-02-13T01:58:01;8.10;99.90
65074;DHT22;52218;51.224;-2.328;2023-02-13T02:01:44;8.10;99.90
65074;DHT22;52218;51.224;-2.328;2023-02-13T02:05:28;8.10;99.90
65074;DHT22;52218;51.224;-2.328;2023-02-13T02:09:24;8.00;99.90
65074;DHT22;52218;51.224;-2.328;2023-02-13T02:13:18;8.00;99.90
65074;DHT22;52218;51.224;-2.328;2023-02-13T02:17:01;8.00;99.90
65074;DHT22;52218;51.224;-2.328;2023-02-13T02:25:09;8.00;99.90
65074;DHT22;52218;51.224;-2.328;2023-02-13T02:33:17;8.00;99.90
65074;DHT22;52218;51.224;-2.328;2023-02-13T02:45:53;8.00;99.90
65074;DHT22;52218;51.224;-2.328;2023-02-13T02:49:39;7.90;99.90
65074;DHT22;52218;51.224;-2.328;2023-02-13T02:53:52;8.00;99.90
65074;DHT22;52218;51.224;-2.328;2023-02-13T02:57:47;7.90;99.90
65074;DHT22;52218;51.224;-2.328;2023-02-13T03:01:49;7.90;99.90
65074;DHT22;52218;51.224;-2.328;2023-02-13T03:05:51;7.90;99.90
65074;DHT22;52218;51.224;-2.328;2023-02-13T03:10:04;7.90;99.90
65074;DHT22;52218;51.224;-2.328;2023-02-13T03:14:06;7.90;99.90
65074;DHT22;52218;51.224;-2.328;2023-02-13T03:17:51;7.90;99.90
65074;DHT22;52218;51.224;-2.328;2023-02-13T03:30:04;7.90;99.90
65074;DHT22;52218;51.224;-2.328;2023-02-13T03:37:46;7.80;99.90
65074;DHT22;52218;51.224;-2.328;2023-02-13T03:41:57;7.80;99.90
65074;DHT22;52218;51.224;-2.328;2023-02-13T03:45:44;7.80;99.90
65074;DHT22;52218;51.224;-2.328;2023-02-13T03:49:40;7.80;99.90
65074;DHT22;52218;51.224;-2.328;2023-02-13T03:53:41;7.80;99.90
65074;DHT22;52218;51.224;-2.328;2023-02-13T03:57:25;7.80;99.90
65074;DHT22;52218;51.224;-2.328;2023-02-13T04:01:30;7.80;99.90
65074;DHT22;52218;51.224;-2.328;2023-02-13T04:05:18;7.80;99.90
65074;DHT22;52218;51.224;-2.328;2023-02-13T04:09:01;7.80;99.90
65074;DHT22;52218;51.224;-2.328;2023-02-13T04:16:47;7.80;99.90
65074;DHT22;52218;51.224;-2.328;2023-02-13T04:20:31;7.80;99.90
65074;DHT22;52218;51.224;-2.328;2023-02-13T04:24:13;7.80;99.90
65074;DHT22;52218;51.224;-2.328;2023-02-13T04:27:55;7.80;99.90
65074;DHT22;52218;51.224;-2.328;2023-02-13T04:31:37;7.80;99.90
65074;DHT22;52218;51.224;-2.328;2023-02-13T04:35:21;7.80;99.90
65074;DHT22;52218;51.224;-2.328;2023-02-13T04:39:03;7.80;99.90
65074;DHT22;52218;51.224;-2.328;2023-02-13T04:42:48;7.80;99.90
65074;DHT22;52218;51.224;-2.328;2023-02-13T04:46:30;7.80;99.90
65074;DHT22;52218;51.224;-2.328;2023-02-13T04:50:12;7.70;99.90
65074;DHT22;52218;51.224;-2.328;2023-02-13T04:53:54;7.80;99.90
65074;DHT22;52218;51.224;-2.328;2023-02-13T04:57:36;7.70;99.90
65074;DHT22;52218;51.224;-2.328;2023-02-13T05:01:18;7.70;99.90
65074;DHT22;52218;51.224;-2.328;2023-02-13T05:05:00;7.70;99.90
65074;DHT22;52218;51.224;-2.328;2023-02-13T05:08:42;7.60;99.90
65074;DHT22;52218;51.224;-2.328;2023-02-13T05:12:24;7.60;99.90
65074;DHT22;52218;51.224;-2.328;2023-02-13T05:16:06;7.60;99.90
65074;DHT22;52218;51.224;-2.328;2023-02-13T05:19:48;7.50;99.90
65074;DHT22;52218;51.224;-2.328;2023-02-13T05:23:30;7.50;99.90
65074;DHT22;52218;51.224;-2.328;2023-02-13T05:27:12;7.50;99.90
65074;DHT22;52218;51.224;-2.328;2023-02-13T05:30:54;7.40;99.90
65074;DHT22;52218;51.224;-2.328;2023-02-13T05:34:37;7.40;99.90
65074;DHT22;52218;51.224;-2.328;2023-02-13T05:38:19;7.40;99.90
65074;DHT22;52218;51.224;-2.328;2023-02-13T05:42:01;7.40;99.90
65074;DHT22;52218;51.224;-2.328;2023-02-13T05:45:45;7.40;99.90
65074;DHT22;52218;51.224;-2.328;2023-02-13T05:49:27;7.40;99.90
65074;DHT22;52218;51.224;-2.328;2023-02-13T05:53:09;7.30;99.90
65074;DHT22;52218;51.224;-2.328;2023-02-13T05:56:51;7.30;99.90
65074;DHT22;52218;51.224;-2.328;2023-02-13T06:00:33;7.30;99.90
65074;DHT22;52218;51.224;-2.328;2023-02-13T06:04:15;7.30;99.90
65074;DHT22;52218;51.224;-2.328;2023-02-13T06:07:57;7.30;99.90
65074;DHT22;52218;51.224;-2.328;2023-02-13T06:11:39;7.30;99.90
65074;DHT22;52218;51.224;-2.328;2023-02-13T06:15:21;7.20;99.90
65074;DHT22;52218;51.224;-2.328;2023-02-13T06:19:03;7.20;99.90
65074;DHT22;52218;51.224;-2.328;2023-02-13T06:22:49;7.20;99.90
65074;DHT22;52218;51.224;-2.328;2023-02-13T06:26:31;7.20;99.90
65074;DHT22;52218;51.224;-2.328;2023-02-13T06:30:14;7.20;99.90
65074;DHT22;52218;51.224;-2.328;2023-02-13T06:33:56;7.20;99.90
65074;DHT22;52218;51.224;-2.328;2023-02-13T06:37:38;7.20;99.90
65074;DHT22;52218;51.224;-2.328;2023-02-13T06:41:20;7.20;99.90
65074;DHT22;52218;51.224;-2.328;2023-02-13T06:45:03;7.10;99.90
65074;DHT22;52218;51.224;-2.328;2023-02-13T06:48:45;7.10;99.90
65074;DHT22;52218;51.224;-2.328;2023-02-13T06:52:27;7.00;99.90
65074;DHT22;52218;51.224;-2.328;2023-02-13T06:56:11;7.00;99.90
65074;DHT22;52218;51.224;-2.328;2023-02-13T06:59:53;7.00;99.90
65074;DHT22;52218;51.224;-2.328;2023-02-13T07:03:35;7.00;99.90
65074;DHT22;52218;51.224;-2.328;2023-02-13T07:07:17;6.90;99.90
65074;DHT22;52218;51.224;-2.328;2023-02-13T07:10:59;6.90;99.90
65074;DHT22;52218;51.224;-2.328;2023-02-13T07:14:41;6.90;99.90
65074;DHT22;52218;51.224;-2.328;2023-02-13T07:18:23;6.90;99.90
65074;DHT22;52218;51.224;-2.328;2023-02-13T07:22:05;6.90;99.90
65074;DHT22;52218;51.224;-2.328;2023-02-13T07:25:47;6.90;99.90
65074;DHT22;52218;51.224;-2.328;2023-02-13T07:29:29;6.90;99.90
65074;DHT22;52218;51.224;-2.328;2023-02-13T07:33:11;7.00;99.90
65074;DHT22;52218;51.224;-2.328;2023-02-13T07:36:54;7.00;99.90
65074;DHT22;52218;51.224;-2.328;2023-02-13T07:40:36;6.90;99.90
65074;DHT22;52218;51.224;-2.328;2023-02-13T07:44:18;7.00;99.90
65074;DHT22;52218;51.224;-2.328;2023-02-13T07:48:00;7.00;99.90
65074;DHT22;52218;51.224;-2.328;2023-02-13T07:51:42;7.00;99.90
65074;DHT22;52218;51.224;-2.328;2023-02-13T07:55:24;7.00;99.90
65074;DHT22;52218;51.224;-2.328;2023-02-13T07:59:07;7.10;99.90
65074;DHT22;52218;51.224;-2.328;2023-02-13T08:02:49;7.10;99.90
65074;DHT22;52218;51.224;-2.328;2023-02-13T08:06:31;7.10;99.90
65074;DHT22;52218;51.224;-2.328;2023-02-13T08:10:14;7.10;99.90
65074;DHT22;52218;51.224;-2.328;2023-02-13T08:14:15;7.20;99.90
65074;DHT22;52218;51.224;-2.328;2023-02-13T08:17:57;7.20;99.90
65074;DHT22;52218;51.224;-2.328;2023-02-13T08:21:39;7.30;99.90
65074;DHT22;52218;51.224;-2.328;2023-02-13T08:25:21;7.30;99.90
65074;DHT22;52218;51.224;-2.328;2023-02-13T08:29:04;7.30;99.90
65074;DHT22;52218;51.224;-2.328;2023-02-13T08:32:46;7.40;99.90
65074;DHT22;52218;51.224;-2.328;2023-02-13T08:36:35;7.40;99.90
65074;DHT22;52218;51.224;-2.328;2023-02-13T08:40:17;7.50;99.90
65074;DHT22;52218;51.224;-2.328;2023-02-13T08:44:00;7.50;99.90
65074;DHT22;52218;51.224;-2.328;2023-02-13T08:47:42;7.50;99.90
65074;DHT22;52218;51.224;-2.328;2023-02-13T08:51:24;7.60;99.90
65074;DHT22;52218;51.224;-2.328;2023-02-13T08:55:06;7.60;99.90
65074;DHT22;52218;51.224;-2.328;2023-02-13T08:58:48;7.60;99.90
65074;DHT22;52218;51.224;-2.328;2023-02-13T09:02:31;7.70;99.90
65074;DHT22;52218;51.224;-2.328;2023-02-13T09:06:13;7.70;99.90
65074;DHT22;52218;51.224;-2.328;2023-02-13T09:09:55;7.80;99.90
65074;DHT22;52218;51.224;-2.328;2023-02-13T09:13:37;7.90;99.90
65074;DHT22;52218;51.224;-2.328;2023-02-13T09:17:19;8.00;99.90
65074;DHT22;52218;51.224;-2.328;2023-02-13T09:21:08;8.10;99.90
65074;DHT22;52218;51.224;-2.328;2023-02-13T09:24:51;8.20;99.90
65074;DHT22;52218;51.224;-2.328;2023-02-13T09:28:34;8.30;99.90
65074;DHT22;52218;51.224;-2.328;2023-02-13T09:32:17;8.40;99.90
65074;DHT22;52218;51.224;-2.328;2023-02-13T09:36:03;8.60;99.90
65074;DHT22;52218;51.224;-2.328;2023-02-13T09:39:46;8.70;99.90
65074;DHT22;52218;51.224;-2.328;2023-02-13T09:43:40;8.80;99.90
65074;DHT22;52218;51.224;-2.328;2023-02-13T09:47:38;9.00;99.90
65074;DHT22;52218;51.224;-2.328;2023-02-13T09:51:24;9.10;99.90
65074;DHT22;52218;51.224;-2.328;2023-02-13T09:55:18;9.20;99.90
65074;DHT22;52218;51.224;-2.328;2023-02-13T09:59:28;9.30;99.90
65074;DHT22;52218;51.224;-2.328;2023-02-13T10:07:44;9.70;99.90
65074;DHT22;52218;51.224;-2.328;2023-02-13T10:15:46;10.50;99.90
65074;DHT22;52218;51.224;-2.328;2023-02-13T10:20:06;10.90;99.90
65074;DHT22;52218;51.224;-2.328;2023-02-13T10:23:49;11.40;99.90
65074;DHT22;52218;51.224;-2.328;2023-02-13T10:27:35;11.90;99.90
65074;DHT22;52218;51.224;-2.328;2023-02-13T10:31:22;12.10;99.90
65074;DHT22;52218;51.224;-2.328;2023-02-13T10:35:17;12.30;99.90
65074;DHT22;52218;51.224;-2.328;2023-02-13T10:42:52;12.90;99.90
65074;DHT22;52218;51.224;-2.328;2023-02-13T10:59:03;14.60;99.90
65074;DHT22;52218;51.224;-2.328;2023-02-13T11:02:47;15.60;99.90
65074;DHT22;52218;51.224;-2.328;2023-02-13T11:06:29;16.40;99.90
65074;DHT22;52218;51.224;-2.328;2023-02-13T11:10:18;17.20;99.90
65074;DHT22;52218;51.224;-2.328;2023-02-13T11:14:24;17.70;99.90
65074;DHT22;52218;51.224;-2.328;2023-02-13T11:18:17;17.50;99.90
65074;DHT22;52218;51.224;-2.328;2023-02-13T11:22:15;16.70;99.90
65074;DHT22;52218;51.224;-2.328;2023-02-13T11:26:11;16.00;99.90
65074;DHT22;52218;51.224;-2.328;2023-02-13T11:30:34;15.50;99.90
65074;DHT22;52218;51.224;-2.328;2023-02-13T11:41:57;15.50;99.90
65074;DHT22;52218;51.224;-2.328;2023-02-13T11:45:40;16.40;99.90
65074;DHT22;52218;51.224;-2.328;2023-02-13T11:49:27;17.20;99.90
65074;DHT22;52218;51.224;-2.328;2023-02-13T11:53:22;17.50;99.90
65074;DHT22;52218;51.224;-2.328;2023-02-13T12:01:30;18.70;99.00
65074;DHT22;52218;51.224;-2.328;2023-02-13T12:05:17;19.10;98.30
65074;DHT22;52218;51.224;-2.328;2023-02-13T12:09:00;19.50;96.50
65074;DHT22;52218;51.224;-2.328;2023-02-13T12:16:32;20.30;94.70
65074;DHT22;52218;51.224;-2.328;2023-02-13T12:20:17;20.50;92.90
65074;DHT22;52218;51.224;-2.328;2023-02-13T12:28:10;20.80;92.80
65074;DHT22;52218;51.224;-2.328;2023-02-13T12:39:33;21.40;88.90
65074;DHT22;52218;51.224;-2.328;2023-02-13T12:47:23;21.10;89.70
65074;DHT22;52218;51.224;-2.328;2023-02-13T12:51:30;21.00;90.90
65074;DHT22;52218;51.224;-2.328;2023-02-13T12:59:53;21.20;93.10
65074;DHT22;52218;51.224;-2.328;2023-02-13T13:03:43;21.20;90.80
65074;DHT22;52218;51.224;-2.328;2023-02-13T13:08:02;21.50;89.00
65074;DHT22;52218;51.224;-2.328;2023-02-13T13:23:23;21.20;86.20
65074;DHT22;52218;51.224;-2.328;2023-02-13T13:27:44;21.10;87.00
65074;DHT22;52218;51.224;-2.328;2023-02-13T13:31:27;21.10;91.00
65074;DHT22;52218;51.224;-2.328;2023-02-13T13:35:14;21.10;86.80
65074;DHT22;52218;51.224;-2.328;2023-02-13T13:47:34;21.40;88.80
65074;DHT22;52218;51.224;-2.328;2023-02-13T13:51:20;21.80;84.00
65074;DHT22;52218;51.224;-2.328;2023-02-13T13:55:04;22.10;81.90
65074;DHT22;52218;51.224;-2.328;2023-02-13T13:58:46;22.00;80.30
65074;DHT22;52218;51.224;-2.328;2023-02-13T14:02:44;22.10;81.00
65074;DHT22;52218;51.224;-2.328;2023-02-13T14:07:12;22.20;81.80
65074;DHT22;52218;51.224;-2.328;2023-02-13T14:18:18;21.90;78.80
65074;DHT22;52218;51.224;-2.328;2023-02-13T14:29:59;21.40;83.20
65074;DHT22;52218;51.224;-2.328;2023-02-13T14:33:42;21.30;79.50
65074;DHT22;52218;51.224;-2.328;2023-02-13T14:37:30;21.20;79.50
65074;DHT22;52218;51.224;-2.328;2023-02-13T14:45:39;21.10;83.50
65074;DHT22;52218;51.224;-2.328;2023-02-13T14:49:24;20.20;82.50
65074;DHT22;52218;51.224;-2.328;2023-02-13T14:53:18;19.10;84.50
65074;DHT22;52218;51.224;-2.328;2023-02-13T15:01:07;16.90;91.60
65074;DHT22;52218;51.224;-2.328;2023-02-13T15:05:03;16.30;92.50
65074;DHT22;52218;51.224;-2.328;2023-02-13T15:08:51;15.80;93.70
65074;DHT22;52218;51.224;-2.328;2023-02-13T15:12:34;15.30;94.70
65074;DHT22;52218;51.224;-2.328;2023-02-13T15:16:17;14.90;96.50
65074;DHT22;52218;51.224;-2.328;2023-02-13T15:20:22;14.60;97.20
65074;DHT22;52218;51.224;-2.328;2023-02-13T15:24:12;14.30;98.10
65074;DHT22;52218;51.224;-2.328;2023-02-13T15:27:55;14.00;99.10
65074;DHT22;52218;51.224;-2.328;2023-02-13T15:31:39;13.80;99.60
65074;DHT22;52218;51.224;-2.328;2023-02-13T15:39:06;13.50;99.90
65074;DHT22;52218;51.224;-2.328;2023-02-13T15:42:51;13.40;99.90
65074;DHT22;52218;51.224;-2.328;2023-02-13T15:46:35;13.30;99.90
65074;DHT22;52218;51.224;-2.328;2023-02-13T15:50:30;13.20;99.90
65074;DHT22;52218;51.224;-2.328;2023-02-13T15:54:27;13.00;99.90
65074;DHT22;52218;51.224;-2.328;2023-02-13T15:58:11;12.90;99.90
65074;DHT22;52218;51.224;-2.328;2023-02-13T16:01:54;12.80;99.90
65074;DHT22;52218;51.224;-2.328;2023-02-13T16:05:38;12.70;99.90
65074;DHT22;52218;51.224;-2.328;2023-02-13T16:09:30;12.60;99.90
65074;DHT22;52218;51.224;-2.328;2023-02-13T16:13:17;12.50;99.90
65074;DHT22;52218;51.224;-2.328;2023-02-13T16:20:43;12.30;99.90
65074;DHT22;52218;51.224;-2.328;2023-02-13T16:24:26;12.10;99.90
65074;DHT22;52218;51.224;-2.328;2023-02-13T16:31:51;11.90;99.90
65074;DHT22;52218;51.224;-2.328;2023-02-13T16:35:36;11.80;99.90
65074;DHT22;52218;51.224;-2.328;2023-02-13T16:39:30;11.60;99.90
65074;DHT22;52218;51.224;-2.328;2023-02-13T16:43:38;11.50;99.90
65074;DHT22;52218;51.224;-2.328;2023-02-13T16:47:23;11.40;99.90
65074;DHT22;52218;51.224;-2.328;2023-02-13T16:51:06;11.20;99.90
65074;DHT22;52218;51.224;-2.328;2023-02-13T16:54:54;11.10;99.90
65074;DHT22;52218;51.224;-2.328;2023-02-13T16:58:37;10.90;99.90
65074;DHT22;52218;51.224;-2.328;2023-02-13T17:02:30;10.80;99.90
65074;DHT22;52218;51.224;-2.328;2023-02-13T17:06:12;10.60;99.90
65074;DHT22;52218;51.224;-2.328;2023-02-13T17:10:05;10.50;99.90
65074;DHT22;52218;51.224;-2.328;2023-02-13T17:13:47;10.40;99.90
65074;DHT22;52218;51.224;-2.328;2023-02-13T17:17:30;10.20;99.90
65074;DHT22;52218;51.224;-2.328;2023-02-13T17:21:13;10.10;99.90
65074;DHT22;52218;51.224;-2.328;2023-02-13T17:24:56;9.90;99.90
65074;DHT22;52218;51.224;-2.328;2023-02-13T17:28:38;9.70;99.90
65074;DHT22;52218;51.224;-2.328;2023-02-13T17:32:23;9.50;99.90
65074;DHT22;52218;51.224;-2.328;2023-02-13T17:36:06;9.40;99.90
65074;DHT22;52218;51.224;-2.328;2023-02-13T17:39:48;9.20;99.90
65074;DHT22;52218;51.224;-2.328;2023-02-13T17:43:31;9.00;99.90
65074;DHT22;52218;51.224;-2.328;2023-02-13T17:47:13;8.90;99.90
65074;DHT22;52218;51.224;-2.328;2023-02-13T17:50:55;8.70;99.90
65074;DHT22;52218;51.224;-2.328;2023-02-13T17:54:37;8.60;99.90
65074;DHT22;52218;51.224;-2.328;2023-02-13T17:58:19;8.30;99.90
65074;DHT22;52218;51.224;-2.328;2023-02-13T18:02:02;8.20;99.90
65074;DHT22;52218;51.224;-2.328;2023-02-13T18:05:46;8.10;99.90
65074;DHT22;52218;51.224;-2.328;2023-02-13T18:09:29;8.00;99.90
65074;DHT22;52218;51.224;-2.328;2023-02-13T18:13:11;7.90;99.90
65074;DHT22;52218;51.224;-2.328;2023-02-13T18:16:53;7.70;99.90
65074;DHT22;52218;51.224;-2.328;2023-02-13T18:20:35;7.60;99.90
65074;DHT22;52218;51.224;-2.328;2023-02-13T18:24:17;7.60;99.90
65074;DHT22;52218;51.224;-2.328;2023-02-13T18:28:00;7.40;99.90
65074;DHT22;52218;51.224;-2.328;2023-02-13T18:31:42;7.40;99.90
65074;DHT22;52218;51.224;-2.328;2023-02-13T18:35:24;7.30;99.90
65074;DHT22;52218;51.224;-2.328;2023-02-13T18:39:07;7.20;99.90
65074;DHT22;52218;51.224;-2.328;2023-02-13T18:42:49;7.10;99.90
65074;DHT22;52218;51.224;-2.328;2023-02-13T18:46:32;7.10;99.90
65074;DHT22;52218;51.224;-2.328;2023-02-13T18:50:14;7.00;99.90
65074;DHT22;52218;51.224;-2.328;2023-02-13T18:53:57;6.90;99.90
65074;DHT22;52218;51.224;-2.328;2023-02-13T18:57:38;6.80;99.90
65074;DHT22;52218;51.224;-2.328;2023-02-13T19:01:24;6.70;99.90
65074;DHT22;52218;51.224;-2.328;2023-02-13T19:05:06;6.70;99.90
65074;DHT22;52218;51.224;-2.328;2023-02-13T19:08:48;6.60;99.90
65074;DHT22;52218;51.224;-2.328;2023-02-13T19:12:31;6.50;99.90
65074;DHT22;52218;51.224;-2.328;2023-02-13T19:16:17;6.50;99.90
65074;DHT22;52218;51.224;-2.328;2023-02-13T19:19:59;6.60;99.90
65074;DHT22;52218;51.224;-2.328;2023-02-13T19:23:42;6.60;99.90
65074;DHT22;52218;51.224;-2.328;2023-02-13T19:27:24;6.60;99.90
65074;DHT22;52218;51.224;-2.328;2023-02-13T19:34:55;6.60;99.90
65074;DHT22;52218;51.224;-2.328;2023-02-13T19:38:38;6.60;99.90
65074;DHT22;52218;51.224;-2.328;2023-02-13T19:42:21;6.60;99.90
65074;DHT22;52218;51.224;-2.328;2023-02-13T19:46:06;6.50;99.90
65074;DHT22;52218;51.224;-2.328;2023-02-13T19:49:53;6.50;99.90
65074;DHT22;52218;51.224;-2.328;2023-02-13T19:53:35;6.40;99.90
65074;DHT22;52218;51.224;-2.328;2023-02-13T19:57:17;6.30;99.90
65074;DHT22;52218;51.224;-2.328;2023-02-13T20:01:08;6.20;99.90
65074;DHT22;52218;51.224;-2.328;2023-02-13T20:04:51;6.10;99.90
65074;DHT22;52218;51.224;-2.328;2023-02-13T20:08:33;6.00;99.90
65074;DHT22;52218;51.224;-2.328;2023-02-13T20:12:15;6.00;99.90
65074;DHT22;52218;51.224;-2.328;2023-02-13T20:15:57;5.80;99.90
65074;DHT22;52218;51.224;-2.328;2023-02-13T20:19:39;5.80;99.90
65074;DHT22;52218;51.224;-2.328;2023-02-13T20:23:21;5.80;99.90
65074;DHT22;52218;51.224;-2.328;2023-02-13T20:27:04;5.70;99.90
65074;DHT22;52218;51.224;-2.328;2023-02-13T20:30:46;5.70;99.90
65074;DHT22;52218;51.224;-2.328;2023-02-13T20:34:28;5.70;99.90
65074;DHT22;52218;51.224;-2.328;2023-02-13T20:38:18;5.70;99.90
65074;DHT22;52218;51.224;-2.328;2023-02-13T20:42:00;5.60;99.90
65074;DHT22;52218;51.224;-2.328;2023-02-13T20:45:42;5.60;99.90
65074;DHT22;52218;51.224;-2.328;2023-02-13T20:49:24;5.50;99.90
65074;DHT22;52218;51.224;-2.328;2023-02-13T20:53:07;5.40;99.90
65074;DHT22;52218;51.224;-2.328;2023-02-13T20:56:50;5.40;99.90
65074;DHT22;52218;51.224;-2.328;2023-02-13T21:00:32;5.30;99.90
65074;DHT22;52218;51.224;-2.328;2023-02-13T21:04:15;5.20;99.90
65074;DHT22;52218;51.224;-2.328;2023-02-13T21:08:00;5.10;99.90
65074;DHT22;52218;51.224;-2.328;2023-02-13T21:11:43;5.00;99.90
65074;DHT22;52218;51.224;-2.328;2023-02-13T21:15:27;4.90;99.90
65074;DHT22;52218;51.224;-2.328;2023-02-13T21:19:15;4.80;99.90
65074;DHT22;52218;51.224;-2.328;2023-02-13T21:22:58;4.70;99.90
65074;DHT22;52218;51.224;-2.328;2023-02-13T21:26:41;4.70;99.90
65074;DHT22;52218;51.224;-2.328;2023-02-13T21:30:23;4.50;99.90
65074;DHT22;52218;51.224;-2.328;2023-02-13T21:34:07;4.50;99.90
65074;DHT22;52218;51.224;-2.328;2023-02-13T21:37:51;4.40;99.90
65074;DHT22;52218;51.224;-2.328;2023-02-13T21:41:33;4.30;99.90
65074;DHT22;52218;51.224;-2.328;2023-02-13T21:45:16;4.30;99.90
65074;DHT22;52218;51.224;-2.328;2023-02-13T21:49:00;4.20;99.90
65074;DHT22;52218;51.224;-2.328;2023-02-13T21:52:42;4.20;99.90
65074;DHT22;52218;51.224;-2.328;2023-02-13T21:56:26;4.20;99.90
65074;DHT22;52218;51.224;-2.328;2023-02-13T22:00:09;4.10;99.90
65074;DHT22;52218;51.224;-2.328;2023-02-13T22:03:52;4.00;99.90
65074;DHT22;52218;51.224;-2.328;2023-02-13T22:07:34;4.00;99.90
65074;DHT22;52218;51.224;-2.328;2023-02-13T22:11:36;3.80;99.90
65074;DHT22;52218;51.224;-2.328;2023-02-13T22:15:19;3.80;99.90
65074;DHT22;52218;51.224;-2.328;2023-02-13T22:19:01;3.80;99.90
65074;DHT22;52218;51.224;-2.328;2023-02-13T22:22:44;3.80;99.90
65074;DHT22;52218;51.224;-2.328;2023-02-13T22:26:28;3.70;99.90
65074;DHT22;52218;51.224;-2.328;2023-02-13T22:30:11;3.60;99.90
65074;DHT22;52218;51.224;-2.328;2023-02-13T22:33:54;3.60;99.90
65074;DHT22;52218;51.224;-2.328;2023-02-13T22:37:45;3.50;99.90
65074;DHT22;52218;51.224;-2.328;2023-02-13T22:41:27;3.40;99.90
65074;DHT22;52218;51.224;-2.328;2023-02-13T22:45:09;3.40;99.90
65074;DHT22;52218;51.224;-2.328;2023-02-13T22:48:51;3.40;99.90
65074;DHT22;52218;51.224;-2.328;2023-02-13T22:52:34;3.30;99.90
65074;DHT22;52218;51.224;-2.328;2023-02-13T22:56:16;3.30;99.90
65074;DHT22;52218;51.224;-2.328;2023-02-13T22:59:58;3.30;99.90
65074;DHT22;52218;51.224;-2.328;2023-02-13T23:03:40;3.20;99.90
65074;DHT22;52218;51.224;-2.328;2023-02-13T23:07:22;3.20;99.90
65074;DHT22;52218;51.224;-2.328;2023-02-13T23:11:13;3.10;99.90
65074;DHT22;52218;51.224;-2.328;2023-02-13T23:15:14;3.10;99.90
65074;DHT22;52218;51.224;-2.328;2023-02-13T23:18:57;3.10;99.90
65074;DHT22;52218;51.224;-2.328;2023-02-13T23:22:39;3.10;99.90
65074;DHT22;52218;51.224;-2.328;2023-02-13T23:26:21;3.00;99.90
65074;DHT22;52218;51.224;-2.328;2023-02-13T23:30:04;3.00;99.90
65074;DHT22;52218;51.224;-2.328;2023-02-13T23:33:47;2.90;99.90
65074;DHT22;52218;51.224;-2.328;2023-02-13T23:37:29;2.90;99.90
65074;DHT22;52218;51.224;-2.328;2023-02-13T23:41:11;2.80;99.90
65074;DHT22;52218;51.224;-2.328;2023-02-13T23:44:53;2.80;99.90
65074;DHT22;52218;51.224;-2.328;2023-02-13T23:48:35;2.80;99.90
65074;DHT22;52218;51.224;-2.328;2023-02-13T23:52:17;2.80;99.90
65074;DHT22;52218;51.224;-2.328;2023-02-13T23:55:59;2.70;99.90
65074;DHT22;52218;51.224;-2.328;2023-02-13T23:59:41;2.70;99.90
